Time;durP1;ratioP1;P1;durP2;ratioP2;P2;SDS_P1;SDS_P2;PMS_P1;PMS_P2;Temp;Humidity;BMP_temperature;BMP_pressure;BME280_temperature;BME280_humidity;BME280_pressure;Samples;Min_cycle;Max_cycle;Signal;HPM_P1;HPM_P2
2021/11/14 00:01:40;;;;;;;114.17;76.02;;;;;;;-0.78;80.64;102231.48;1763464;81;21471;-70
2021/11/14 00:04:09;;;;;;;120.02;79.40;;;;;;;-0.74;80.90;102233.25;1763735;81;20974;-69
2021/11/14 00:06:39;;;;;;;127.20;77.20;;;;;;;-0.68;80.92;102228.61;1763506;81;20939;-70
2021/11/14 00:09:05;;;;;;;112.05;74.40;;;;;;;-0.66;80.74;102231.64;1763555;81;20872;-72
2021/11/14 00:11:33;;;;;;;113.17;67.82;;;;;;;-0.65;80.60;102226.06;1738289;81;21139;-71
2021/11/14 00:14:01;;;;;;;123.72;74.75;;;;;;;-0.67;80.42;102229.05;1763377;81;21443;-71
2021/11/14 00:16:28;;;;;;;122.07;73.12;;;;;;;-0.71;80.35;102225.98;1763451;81;21048;-72
2021/11/14 00:18:56;;;;;;;122.98;73.97;;;;;;;-0.74;80.46;102221.66;1763540;81;20887;-70
2021/11/14 00:21:24;;;;;;;112.83;66.40;;;;;;;-0.70;80.74;102224.72;1763556;81;20926;-71
2021/11/14 00:23:51;;;;;;;113.08;69.75;;;;;;;-0.66;80.77;102218.77;1763510;81;21809;-71
2021/11/14 00:26:19;;;;;;;134.78;78.10;;;;;;;-0.63;80.91;102223.94;1763467;81;20978;-71
2021/11/14 00:28:45;;;;;;;150.20;87.10;;;;;;;-0.63;80.67;102223.09;1763465;81;21414;-70
2021/11/14 00:31:17;;;;;;;151.57;83.78;;;;;;;-0.62;80.67;102222.26;1763490;81;21527;-71
2021/11/14 00:33:46;;;;;;;150.30;83.87;;;;;;;-0.59;80.26;102223.57;1762371;81;20914;-71
2021/11/14 00:36:16;;;;;;;144.45;81.32;;;;;;;-0.61;79.87;102214.95;1763773;81;21463;-72
2021/11/14 00:38:43;;;;;;;143.02;82.88;;;;;;;-0.64;79.54;102213.21;1763496;81;20895;-71
2021/11/14 00:41:10;;;;;;;138.15;79.80;;;;;;;-0.66;79.15;102211.47;1763927;81;21389;-71
2021/11/14 00:43:38;;;;;;;139.32;83.92;;;;;;;-0.69;78.94;102208.84;1763303;81;21520;-70
2021/11/14 00:46:06;;;;;;;164.70;94.37;;;;;;;-0.74;78.98;102211.78;1763573;81;20895;-70
2021/11/14 00:48:33;;;;;;;164.03;89.75;;;;;;;-0.76;78.86;102214.34;1763676;81;21766;-71
2021/11/14 00:51:03;;;;;;;156.60;86.30;;;;;;;-0.82;78.84;102218.54;1763394;81;20962;-72
2021/11/14 00:53:29;;;;;;;152.57;82.72;;;;;;;-0.85;78.90;102220.23;1763495;81;20998;-71
2021/11/14 00:55:56;;;;;;;145.22;77.50;;;;;;;-0.86;79.06;102221.09;1763508;81;20942;-71
2021/11/14 00:58:24;;;;;;;138.05;75.97;;;;;;;-0.86;79.01;102219.80;1763421;81;20887;-72
2021/11/14 01:00:51;;;;;;;148.43;78.17;;;;;;;-0.86;79.01;102222.38;1763617;81;21130;-70
2021/11/14 01:03:18;;;;;;;167.82;81.47;;;;;;;-0.88;78.88;102222.78;1763337;81;21001;-71
2021/11/14 01:05:49;;;;;;;145.02;76.20;;;;;;;-0.96;78.79;102222.23;1763516;81;21391;-71
2021/11/14 01:08:17;;;;;;;142.95;75.12;;;;;;;-0.98;78.84;102226.06;1763840;81;20887;-71
2021/11/14 01:10:48;;;;;;;132.90;73.97;;;;;;;-1.02;78.91;102223.42;1763524;81;20886;-71
2021/11/14 01:13:15;;;;;;;127.95;72.95;;;;;;;-1.03;78.96;102231.58;1763815;81;21121;-70
2021/11/14 01:15:43;;;;;;;137.90;76.70;;;;;;;-1.05;79.05;102234.55;1763419;81;21471;-73
2021/11/14 01:20:33;;;;;;;152.95;84.72;;;;;;;-1.02;79.08;102228.18;1883989;75;22126;-71
2021/11/14 01:23:01;;;;;;;159.50;88.87;;;;;;;-1.06;78.98;102234.13;1860307;77;20919;-71
2021/11/14 01:25:28;;;;;;;165.28;83.97;;;;;;;-1.06;78.95;102241.84;1859902;76;21128;-71
2021/11/14 01:27:55;;;;;;;174.35;88.58;;;;;;;-1.11;78.97;102231.48;1859122;77;20952;-72
2021/11/14 01:30:27;;;;;;;174.30;88.10;;;;;;;-1.06;78.96;102240.13;1859049;77;20901;-72
2021/11/14 01:32:54;;;;;;;168.40;87.22;;;;;;;-1.07;78.77;102243.95;1858933;77;20868;-70
2021/11/14 01:35:21;;;;;;;156.28;84.10;;;;;;;-1.11;78.60;102248.22;1859092;77;21453;-71
2021/11/14 01:37:50;;;;;;;157.25;84.83;;;;;;;-1.13;78.46;102249.91;1858945;77;21173;-72
2021/11/14 01:40:24;;;;;;;148.57;81.00;;;;;;;-1.18;78.48;102251.52;1858717;77;20862;-71
2021/11/14 01:42:51;;;;;;;158.42;82.02;;;;;;;-1.20;78.49;102245.52;1859476;77;20877;-72
2021/11/14 01:45:18;;;;;;;149.93;77.17;;;;;;;-1.20;78.35;102243.34;1859178;77;20924;-72
2021/11/14 01:47:46;;;;;;;145.70;76.62;;;;;;;-1.26;78.49;102245.41;1858875;77;20865;-71
2021/11/14 01:50:14;;;;;;;123.70;68.57;;;;;;;-1.27;78.58;102244.95;1858954;77;21114;-72
2021/11/14 01:52:43;;;;;;;131.30;65.97;;;;;;;-1.29;78.62;102244.06;1859163;77;20910;-71
2021/11/14 01:55:10;;;;;;;126.45;66.60;;;;;;;-1.28;78.68;102245.81;1858828;77;20972;-72
2021/11/14 01:57:39;;;;;;;131.47;73.95;;;;;;;-1.27;78.57;102245.84;1858944;76;21003;-71
2021/11/14 02:00:11;;;;;;;137.18;69.67;;;;;;;-1.29;78.46;102241.48;1859102;77;20909;-72
2021/11/14 02:02:38;;;;;;;139.43;70.32;;;;;;;-1.28;78.29;102247.95;1859047;77;21026;-71
2021/11/14 02:05:07;;;;;;;134.05;70.97;;;;;;;-1.30;78.39;102247.06;1858854;77;20893;-71
2021/11/14 02:07:38;;;;;;;120.87;67.42;;;;;;;-1.26;78.21;102247.98;1858967;77;20908;-71
2021/11/14 02:10:07;;;;;;;135.32;71.97;;;;;;;-1.25;78.10;102254.85;1858988;77;20928;-71
2021/11/14 02:12:34;;;;;;;135.28;66.77;;;;;;;-1.26;77.90;102251.84;1859205;76;20826;-71
2021/11/14 02:15:01;;;;;;;133.05;67.12;;;;;;;-1.27;77.76;102254.85;1858899;77;21137;-69
2021/11/14 02:17:30;;;;;;;137.75;73.17;;;;;;;-1.27;77.63;102260.00;1858914;77;21359;-71
2021/11/14 02:19:57;;;;;;;140.75;70.50;;;;;;;-1.25;77.45;102257.00;1861101;77;20932;-71
2021/11/14 02:22:24;;;;;;;128.53;67.82;;;;;;;-1.28;77.21;102262.11;1862047;77;20897;-71
2021/11/14 02:24:51;;;;;;;140.88;65.87;;;;;;;-1.29;77.41;102254.36;1862221;77;21346;-70
2021/11/14 02:27:18;;;;;;;118.47;66.02;;;;;;;-1.30;77.50;102251.35;1862229;77;21730;-71
2021/11/14 02:29:45;;;;;;;118.65;64.65;;;;;;;-1.31;77.48;102255.64;1862413;77;20873;-71
2021/11/14 02:32:12;;;;;;;129.18;65.37;;;;;;;-1.34;77.45;102254.28;1861472;77;20889;-70
2021/11/14 02:34:39;;;;;;;122.30;69.27;;;;;;;-1.38;77.45;102252.53;1861905;77;21401;-71
2021/11/14 02:37:06;;;;;;;128.97;71.85;;;;;;;-1.38;77.42;102247.78;1861607;77;20869;-70
2021/11/14 02:39:33;;;;;;;155.93;83.42;;;;;;;-1.39;77.66;102259.80;1861474;77;21179;-70
2021/11/14 02:42:01;;;;;;;164.55;84.05;;;;;;;-1.37;77.67;102252.97;1861652;77;20972;-70
2021/11/14 02:44:28;;;;;;;141.88;75.40;;;;;;;-1.39;77.60;102250.78;1861520;77;20913;-71
2021/11/14 02:46:56;;;;;;;137.47;72.85;;;;;;;-1.40;77.79;102245.21;1861490;77;20893;-71
2021/11/14 02:49:24;;;;;;;132.60;69.70;;;;;;;-1.40;77.49;102243.92;1861875;77;20920;-71
2021/11/14 02:51:51;;;;;;;120.97;71.92;;;;;;;-1.48;77.39;102248.08;1861573;77;21172;-71
2021/11/14 02:54:19;;;;;;;132.90;71.02;;;;;;;-1.49;77.62;102247.22;1861428;77;21315;-70
2021/11/14 02:56:45;;;;;;;131.80;72.35;;;;;;;-1.47;77.66;102245.53;1861455;77;20881;-71
2021/11/14 02:59:12;;;;;;;127.15;69.53;;;;;;;-1.44;77.48;102246.00;1861853;77;21002;-72
2021/11/14 03:01:43;;;;;;;136.92;66.72;;;;;;;-1.41;77.20;102245.17;1861652;77;20822;-71
2021/11/14 03:04:17;;;;;;;137.07;68.47;;;;;;;-1.43;77.09;102243.00;1861783;77;21849;-71
2021/11/14 03:06:47;;;;;;;153.32;73.07;;;;;;;-1.43;76.86;102246.86;1861506;77;21015;-70
2021/11/14 03:09:14;;;;;;;137.30;66.10;;;;;;;-1.52;76.71;102249.72;1861854;77;20877;-71
2021/11/14 03:11:42;;;;;;;142.32;69.53;;;;;;;-1.58;77.04;102249.64;1861466;77;21434;-70
2021/11/14 03:14:09;;;;;;;132.63;64.37;;;;;;;-1.62;77.19;102246.57;1861797;77;21059;-70
2021/11/14 03:16:38;;;;;;;110.52;56.58;;;;;;;-1.68;77.51;102249.03;1861594;77;20865;-71
2021/11/14 03:19:05;;;;;;;109.57;54.93;;;;;;;-1.72;77.72;102249.39;1860831;76;21545;-71
2021/11/14 03:21:32;;;;;;;103.92;53.05;;;;;;;-1.77;77.87;102245.88;1858381;77;20988;-70
2021/11/14 03:24:01;;;;;;;87.45;48.38;;;;;;;-1.79;78.19;102250.13;1858447;77;20996;-71
2021/11/14 03:26:28;;;;;;;92.90;51.50;;;;;;;-1.72;78.49;102251.95;1858235;76;20830;-71
2021/11/14 03:28:55;;;;;;;92.53;52.35;;;;;;;-1.69;78.94;102246.89;1858228;76;21122;-70
2021/11/14 03:31:27;;;;;;;92.50;52.73;;;;;;;-1.61;79.26;102245.71;1858119;77;21335;-70
2021/11/14 03:33:57;;;;;;;92.00;51.30;;;;;;;-1.55;79.43;102247.53;1858135;77;20889;-71
2021/11/14 03:36:23;;;;;;;89.20;51.77;;;;;;;-1.50;79.59;102248.04;1858436;77;20846;-71
2021/11/14 03:38:55;;;;;;;96.67;54.75;;;;;;;-1.45;79.73;102245.53;1858271;77;20969;-71
2021/11/14 03:41:25;;;;;;;84.90;50.92;;;;;;;-1.45;79.83;102244.25;1858212;76;21726;-71
2021/11/14 03:43:53;;;;;;;80.32;48.73;;;;;;;-1.41;79.93;102242.17;1858137;77;20913;-71
2021/11/14 03:46:21;;;;;;;75.47;48.65;;;;;;;-1.43;79.96;102242.57;1858505;77;21026;-71
2021/11/14 03:48:49;;;;;;;99.75;56.55;;;;;;;-1.44;80.13;102241.28;1858063;77;20861;-71
2021/11/14 03:51:18;;;;;;;106.05;59.00;;;;;;;-1.43;80.30;102243.86;1858269;76;20845;-71
2021/11/14 03:53:44;;;;;;;95.62;56.23;;;;;;;-1.44;80.33;102250.29;1858386;77;21486;-71
2021/11/14 03:56:13;;;;;;;110.45;58.75;;;;;;;-1.44;80.23;102246.42;1858199;77;20960;-70
2021/11/14 03:58:39;;;;;;;114.40;58.30;;;;;;;-1.45;80.14;102249.39;1858164;77;20964;-71
2021/11/14 04:01:11;;;;;;;107.10;58.68;;;;;;;-1.43;79.95;102245.57;1858509;77;20893;-72
2021/11/14 04:03:38;;;;;;;113.22;60.92;;;;;;;-1.43;79.67;102255.86;1858340;77;20873;-71
2021/11/14 04:06:06;;;;;;;107.40;60.78;;;;;;;-1.49;79.42;102256.61;1858430;77;21487;-71
2021/11/14 04:08:33;;;;;;;136.35;64.55;;;;;;;-1.47;79.65;102261.37;1858130;77;20881;-71
2021/11/14 04:11:00;;;;;;;143.50;67.15;;;;;;;-1.50;79.53;102263.91;1858524;77;21331;-72
2021/11/14 04:13:34;;;;;;;133.20;65.22;;;;;;;-1.54;79.30;102259.11;1858113;77;20951;-71
2021/11/14 04:15:58;;;;;;;129.38;61.92;;;;;;;-1.60;79.19;102264.18;1856554;76;20818;-72
2021/11/14 04:18:25;;;;;;;121.57;57.38;;;;;;;-1.62;79.03;102265.86;1858202;77;21207;-69
2021/11/14 04:20:52;;;;;;;99.45;52.00;;;;;;;-1.65;79.10;102264.50;1858088;77;20917;-73
2021/11/14 04:23:21;;;;;;;98.33;52.88;;;;;;;-1.69;79.09;102257.17;1858249;77;20937;-72
2021/11/14 04:25:49;;;;;;;144.60;71.62;;;;;;;-1.71;79.16;102262.70;1858109;77;20858;-71
2021/11/14 04:28:18;;;;;;;128.82;68.95;;;;;;;-1.75;79.46;102264.78;1858106;77;21339;-71
2021/11/14 04:30:47;;;;;;;116.33;60.08;;;;;;;-1.70;79.63;102271.28;1858090;77;21148;-71
2021/11/14 04:33:15;;;;;;;115.30;61.00;;;;;;;-1.69;79.64;102275.57;1858667;77;20885;-72
2021/11/14 04:35:42;;;;;;;106.10;52.85;;;;;;;-1.68;79.55;102274.33;1858144;77;20964;-71
2021/11/14 04:38:10;;;;;;;104.32;54.08;;;;;;;-1.64;79.18;102275.25;1858458;77;20956;-70
2021/11/14 04:40:39;;;;;;;102.22;55.63;;;;;;;-1.69;78.89;102283.28;1858144;77;21362;-70
2021/11/14 04:43:08;;;;;;;101.05;52.93;;;;;;;-1.71;78.85;102274.71;1858360;77;21390;-70
2021/11/14 04:45:35;;;;;;;114.42;56.73;;;;;;;-1.73;78.86;102283.67;1858111;77;20877;-71
2021/11/14 04:48:02;;;;;;;114.15;60.70;;;;;;;-1.72;79.04;102282.81;1858095;76;20914;-72
2021/11/14 04:50:30;;;;;;;101.40;53.95;;;;;;;-1.68;79.03;102283.32;1858063;76;20971;-72
2021/11/14 04:52:56;;;;;;;96.53;47.43;;;;;;;-1.67;78.88;102282.50;1858013;77;20948;-71
2021/11/14 04:55:25;;;;;;;79.37;44.05;;;;;;;-1.67;78.77;102287.64;1858189;76;21144;-71
2021/11/14 04:57:52;;;;;;;94.03;50.73;;;;;;;-1.69;78.82;102295.75;1858008;77;21595;-71
2021/11/14 05:00:26;;;;;;;92.33;49.08;;;;;;;-1.67;78.75;102300.90;1858063;77;20917;-70
2021/11/14 05:02:53;;;;;;;96.80;49.88;;;;;;;-1.68;78.55;102296.18;1857999;77;20897;-72
2021/11/14 05:05:20;;;;;;;94.32;51.98;;;;;;;-1.70;78.21;102295.28;1858107;76;20909;-71
2021/11/14 05:07:47;;;;;;;109.40;58.05;;;;;;;-1.77;78.03;102298.59;1858034;77;21026;-72
2021/11/14 05:10:15;;;;;;;120.08;57.80;;;;;;;-1.78;78.35;102310.12;1858061;76;20861;-71
2021/11/14 05:12:42;;;;;;;128.02;63.52;;;;;;;-1.73;78.43;102305.53;1858217;77;20933;-71
2021/11/14 05:15:09;;;;;;;140.05;65.15;;;;;;;-1.71;78.12;102309.00;1858139;77;20948;-72
2021/11/14 05:17:36;;;;;;;154.27;69.17;;;;;;;-1.66;77.83;102309.08;1858163;77;20822;-71
2021/11/14 05:20:05;;;;;;;142.75;69.47;;;;;;;-1.63;77.71;102323.27;1858795;76;21503;-72
2021/11/14 05:22:32;;;;;;;157.40;75.22;;;;;;;-1.60;77.48;102323.34;1861540;77;20889;-72
2021/11/14 05:24:59;;;;;;;141.00;70.22;;;;;;;-1.61;77.26;102330.59;1861480;77;20916;-72
2021/11/14 05:27:26;;;;;;;127.45;62.95;;;;;;;-1.66;77.28;102336.09;1861396;77;20901;-72
2021/11/14 05:29:53;;;;;;;128.23;60.60;;;;;;;-1.67;77.34;102332.66;1861503;77;20920;-72
2021/11/14 05:32:19;;;;;;;123.85;60.45;;;;;;;-1.67;77.45;102335.63;1861439;77;21492;-73
2021/11/14 05:34:46;;;;;;;120.00;62.20;;;;;;;-1.61;77.42;102343.88;1861502;77;20858;-72
2021/11/14 05:37:14;;;;;;;118.45;57.00;;;;;;;-1.57;77.43;102338.82;1861357;77;20870;-72
2021/11/14 05:39:41;;;;;;;118.87;64.45;;;;;;;-1.53;77.32;102338.47;1861320;77;20964;-72
2021/11/14 05:42:08;;;;;;;120.80;61.13;;;;;;;-1.49;77.32;102345.37;1861550;77;20901;-72
2021/11/14 05:44:35;;;;;;;121.97;59.53;;;;;;;-1.43;77.73;102345.48;1861313;77;21094;-73
2021/11/14 05:47:02;;;;;;;127.53;68.10;;;;;;;-1.35;77.66;102345.64;1861397;77;20912;-73
2021/11/14 05:49:31;;;;;;;180.00;89.70;;;;;;;-1.31;77.57;102349.57;1861391;77;20971;-72
2021/11/14 05:51:58;;;;;;;174.32;90.07;;;;;;;-1.23;77.49;102348.40;1861337;77;20889;-73
2021/11/14 05:54:25;;;;;;;141.68;73.40;;;;;;;-1.19;77.37;102346.75;1861573;77;20909;-73
2021/11/14 05:56:52;;;;;;;118.37;63.68;;;;;;;-1.13;77.39;102353.30;1861437;77;21086;-73
2021/11/14 05:59:31;;;;;;;111.65;57.10;;;;;;;-1.09;77.49;102355.95;1861268;77;20845;-73
2021/11/14 06:06:56;;;;;;;135.50;59.13;;;;;;;-0.87;77.27;102357.15;1861567;77;20837;-72
2021/11/14 06:09:23;;;;;;;131.00;63.23;;;;;;;-0.85;77.18;102354.14;1861601;77;20955;-72
2021/11/14 06:11:50;;;;;;;145.07;63.68;;;;;;;-0.76;77.26;102357.28;1861729;77;20873;-72
2021/11/14 06:14:17;;;;;;;134.18;62.53;;;;;;;-0.68;77.35;102354.84;1861618;77;21351;-73
2021/11/14 06:16:44;;;;;;;149.07;69.75;;;;;;;-0.57;77.38;102351.13;1861477;77;20854;-74
2021/11/14 06:19:12;;;;;;;138.57;65.50;;;;;;;-0.51;77.37;102349.91;1861785;77;21323;-72
2021/11/14 06:21:40;;;;;;;133.78;63.13;;;;;;;-0.44;77.31;102342.30;1861391;77;21036;-73
2021/11/14 06:24:09;;;;;;;164.95;92.37;;;;;;;-0.37;77.24;102348.40;1861578;77;20893;-72
2021/11/14 06:26:35;;;;;;;147.82;82.40;;;;;;;-0.30;77.49;102349.34;1861720;77;20908;-72
2021/11/14 06:29:02;;;;;;;122.55;70.10;;;;;;;-0.21;77.61;102352.03;1861674;77;20882;-72
2021/11/14 06:31:29;;;;;;;118.62;67.37;;;;;;;-0.18;77.82;102348.63;1861520;77;20956;-74
2021/11/14 06:33:56;;;;;;;173.60;89.45;;;;;;;-0.12;78.07;102357.30;1861821;77;21116;-72
2021/11/14 06:36:23;;;;;;;156.97;83.15;;;;;;;-0.06;78.36;102346.20;1861900;77;20976;-74
2021/11/14 06:38:50;;;;;;;134.93;75.20;;;;;;;0.02;78.83;102341.13;1861431;77;20920;-71
2021/11/14 06:41:17;;;;;;;138.43;73.00;;;;;;;0.12;79.16;102343.83;1861932;77;20916;-72
2021/11/14 06:43:44;;;;;;;102.15;61.45;;;;;;;0.23;79.33;102339.23;1861599;77;20873;-71
2021/11/14 06:46:11;;;;;;;118.70;69.20;;;;;;;0.34;79.37;102338.48;1861760;77;21096;-72
2021/11/14 06:48:38;;;;;;;103.50;61.77;;;;;;;0.47;79.54;102341.16;1861520;77;20829;-74
2021/11/14 06:51:05;;;;;;;110.97;62.73;;;;;;;0.57;79.75;102341.27;1861751;77;20947;-74
2021/11/14 06:53:32;;;;;;;115.17;67.60;;;;;;;0.67;79.94;102338.36;1861454;77;21415;-73
2021/11/14 06:55:59;;;;;;;116.60;68.07;;;;;;;0.78;80.05;102339.75;1861916;77;20965;-73
2021/11/14 06:58:26;;;;;;;109.75;66.97;;;;;;;0.88;80.04;102335.08;1861209;77;21143;-74
2021/11/14 07:00:53;;;;;;;107.90;65.65;;;;;;;0.99;79.73;102335.16;1861866;77;21423;-73
2021/11/14 07:03:20;;;;;;;111.68;65.03;;;;;;;1.11;79.57;102333.98;1861541;77;20972;-76
2021/11/14 07:05:47;;;;;;;131.43;76.87;;;;;;;1.21;79.64;102333.59;1861634;77;20877;-77
2021/11/14 07:08:16;;;;;;;109.60;66.10;;;;;;;1.32;79.77;102331.94;1835897;77;20916;-76
2021/11/14 07:10:45;;;;;;;107.32;64.92;;;;;;;1.43;79.94;102328.98;1836365;77;21029;-76
2021/11/14 07:13:12;;;;;;;123.30;70.87;;;;;;;1.55;80.04;102328.18;1861691;77;20964;-77
2021/11/14 07:15:39;;;;;;;115.37;71.85;;;;;;;1.66;80.01;102326.51;1861942;77;21364;-76
2021/11/14 07:18:07;;;;;;;102.78;66.85;;;;;;;1.76;79.87;102320.11;1861416;77;20873;-75
2021/11/14 07:20:34;;;;;;;91.67;57.30;;;;;;;1.87;79.74;102317.13;1861564;77;21049;-76
2021/11/14 07:23:01;;;;;;;88.50;52.55;;;;;;;1.99;79.77;102321.47;1861507;77;21159;-75
2021/11/14 07:25:28;;;;;;;90.25;56.20;;;;;;;2.11;80.14;102316.31;1861463;77;21426;-75
2021/11/14 07:27:56;;;;;;;82.62;49.95;;;;;;;2.26;80.47;102320.67;1861415;77;20999;-77
2021/11/14 07:30:25;;;;;;;76.35;48.65;;;;;;;2.41;80.79;102321.13;1861445;77;20960;-74
2021/11/14 07:32:55;;;;;;;87.15;51.37;;;;;;;2.58;80.72;102321.13;1861556;77;20904;-75
2021/11/14 07:35:23;;;;;;;83.62;52.05;;;;;;;2.69;80.60;102315.11;1861285;77;22187;-76
2021/11/14 07:37:50;;;;;;;82.25;45.55;;;;;;;2.79;80.53;102319.00;1861718;77;20912;-77
2021/11/14 07:40:18;;;;;;;68.22;43.80;;;;;;;2.88;80.38;102310.77;1861594;77;20858;-76
2021/11/14 07:42:45;;;;;;;69.00;42.98;;;;;;;3.00;80.24;102312.52;1861930;77;20916;-75
2021/11/14 07:45:14;;;;;;;77.97;44.65;;;;;;;3.12;80.12;102316.80;1861416;77;20964;-72
2021/11/14 07:47:42;;;;;;;86.45;50.88;;;;;;;3.23;80.23;102305.13;1861429;77;21146;-72
2021/11/14 07:50:10;;;;;;;82.17;50.08;;;;;;;3.36;80.30;102312.41;1861405;77;20857;-73
2021/11/14 07:52:38;;;;;;;86.72;52.40;;;;;;;3.47;80.15;102308.95;1861706;77;20830;-74
2021/11/14 07:55:07;;;;;;;81.15;51.53;;;;;;;3.60;79.95;102298.51;1861587;77;20913;-74
2021/11/14 07:57:35;;;;;;;72.42;44.98;;;;;;;3.71;79.79;102301.51;1836315;77;20912;-74
2021/11/14 08:00:05;;;;;;;73.15;42.30;;;;;;;3.84;79.27;102303.59;1861387;77;21159;-74
2021/11/14 08:02:33;;;;;;;82.45;46.63;;;;;;;3.93;79.14;102301.38;1861643;77;20921;-73
2021/11/14 08:05:01;;;;;;;83.65;49.27;;;;;;;4.05;79.31;102306.52;1861375;77;20948;-70
2021/11/14 08:07:27;;;;;;;74.67;44.25;;;;;;;4.17;79.13;102297.79;1861684;77;21004;-70
2021/11/14 08:09:54;;;;;;;72.55;42.27;;;;;;;4.33;79.10;102298.55;1861359;77;21343;-69
2021/11/14 08:12:21;;;;;;;70.52;41.45;;;;;;;4.49;78.77;102302.78;1861635;77;21100;-71
2021/11/14 08:14:49;;;;;;;70.92;43.48;;;;;;;4.63;78.39;102293.57;1861369;77;21540;-70
2021/11/14 08:17:16;;;;;;;68.25;41.58;;;;;;;4.75;78.00;102284.80;1861400;77;20918;-71
2021/11/14 08:19:44;;;;;;;61.13;37.03;;;;;;;4.86;77.62;102290.75;1861268;77;20972;-72
2021/11/14 08:22:12;;;;;;;56.80;37.60;;;;;;;4.97;77.09;102294.11;1861295;77;20969;-71
2021/11/14 08:24:39;;;;;;;56.70;33.67;;;;;;;5.05;76.70;102286.70;1861494;77;21496;-71
2021/11/14 08:27:07;;;;;;;55.10;33.45;;;;;;;5.10;76.39;102287.06;1861504;77;20901;-71
2021/11/14 08:29:34;;;;;;;56.33;33.65;;;;;;;5.16;76.07;102277.05;1861412;77;20960;-71
2021/11/14 08:32:01;;;;;;;53.85;31.62;;;;;;;5.25;75.86;102279.55;1861726;77;20889;-72
2021/11/14 08:34:29;;;;;;;53.48;32.00;;;;;;;5.33;75.52;102276.84;1861567;77;20877;-71
2021/11/14 08:36:56;;;;;;;47.45;31.25;;;;;;;5.42;75.12;102270.23;1861350;77;21540;-71
2021/11/14 08:39:23;;;;;;;50.05;32.80;;;;;;;5.50;74.72;102264.50;1861359;77;20964;-73
2021/11/14 08:41:51;;;;;;;47.83;30.50;;;;;;;5.57;74.34;102261.38;1861285;77;20881;-71
2021/11/14 08:44:17;;;;;;;42.05;27.87;;;;;;;5.68;74.12;102266.45;1861369;77;20964;-71
2021/11/14 08:46:44;;;;;;;43.65;28.73;;;;;;;5.79;73.75;102263.27;1861737;77;20908;-71
2021/11/14 08:49:11;;;;;;;46.35;28.77;;;;;;;5.86;73.52;102260.99;1861416;77;21538;-73
2021/11/14 08:51:38;;;;;;;50.75;29.40;;;;;;;5.95;73.37;102255.68;1861575;77;20945;-72
2021/11/14 08:54:05;;;;;;;49.50;29.20;;;;;;;6.04;73.01;102254.69;1861510;77;20869;-71
2021/11/14 08:56:33;;;;;;;45.95;28.23;;;;;;;6.13;72.75;102256.30;1861648;77;20912;-73
2021/11/14 08:59:04;;;;;;;48.08;28.47;;;;;;;6.24;72.42;102255.69;1861485;77;21019;-72
2021/11/14 09:01:32;;;;;;;48.28;28.67;;;;;;;6.32;72.03;102252.53;1861769;77;21885;-73
2021/11/14 09:03:59;;;;;;;50.40;30.50;;;;;;;6.41;71.84;102235.89;1861207;77;20898;-72
2021/11/14 09:06:27;;;;;;;42.80;28.75;;;;;;;6.49;71.44;102240.96;1861719;77;21308;-73
2021/11/14 09:08:56;;;;;;;46.13;27.40;;;;;;;6.56;71.02;102235.64;1861326;77;21323;-73
2021/11/14 09:11:23;;;;;;;37.55;26.55;;;;;;;6.64;70.82;102225.91;1861652;77;20952;-72
2021/11/14 09:13:50;;;;;;;35.68;21.20;;;;;;;6.71;70.48;102228.42;1861559;77;20973;-74
2021/11/14 09:16:17;;;;;;;42.85;24.80;;;;;;;6.78;69.90;102223.08;1861641;77;20857;-73
2021/11/14 09:18:45;;;;;;;45.48;25.85;;;;;;;6.89;69.65;102222.01;1861402;77;20904;-73
2021/11/14 09:21:12;;;;;;;48.73;27.60;;;;;;;6.99;69.22;102219.20;1861078;77;20989;-73
2021/11/14 09:23:40;;;;;;;46.13;29.55;;;;;;;7.12;68.74;102218.98;1858137;77;20870;-73
2021/11/14 09:26:10;;;;;;;44.20;29.35;;;;;;;7.21;68.46;102208.35;1856838;76;21054;-73
2021/11/14 09:28:38;;;;;;;49.15;28.85;;;;;;;7.31;68.23;102212.47;1857184;76;21279;-72
2021/11/14 09:31:05;;;;;;;46.40;27.70;;;;;;;7.38;67.67;102210.59;1857834;77;21011;-73
2021/11/14 09:33:34;;;;;;;40.33;24.00;;;;;;;7.42;67.35;102210.95;1857540;77;20865;-72
2021/11/14 09:36:03;;;;;;;34.53;22.13;;;;;;;7.44;66.84;102210.47;1857823;76;20930;-74
2021/11/14 09:38:30;;;;;;;41.88;25.05;;;;;;;7.47;66.53;102206.05;1857448;77;21684;-70
2021/11/14 09:41:02;;;;;;;26.52;17.23;;;;;;;7.53;66.20;102203.73;1858364;76;20842;-73
2021/11/14 09:43:31;;;;;;;28.85;19.50;;;;;;;7.60;65.56;102203.16;1857545;77;20999;-71
2021/11/14 09:45:58;;;;;;;26.68;15.98;;;;;;;7.70;65.41;102199.92;1858107;77;21366;-72
2021/11/14 09:48:25;;;;;;;24.80;17.27;;;;;;;7.77;64.72;102190.59;1858239;77;20893;-72
2021/11/14 09:50:55;;;;;;;29.37;18.48;;;;;;;7.86;64.39;102185.15;1858640;77;21808;-74
2021/11/14 09:53:30;;;;;;;29.48;14.87;;;;;;;7.98;64.08;102181.83;1857805;76;20913;-72
2021/11/14 09:55:58;;;;;;;38.08;23.05;;;;;;;8.10;63.33;102180.25;1857860;77;20904;-72
2021/11/14 09:58:25;;;;;;;41.63;26.37;;;;;;;8.28;63.22;102178.92;1858261;77;20920;-73
2021/11/14 10:00:52;;;;;;;35.88;25.37;;;;;;;8.57;62.76;102174.28;1858187;77;20916;-72
2021/11/14 10:03:20;;;;;;;40.58;23.42;;;;;;;8.99;62.23;102170.53;1858253;77;21937;-72
2021/11/14 10:05:49;;;;;;;34.27;23.18;;;;;;;9.54;61.27;102175.45;1858103;76;20921;-73
2021/11/14 10:08:16;;;;;;;33.92;24.37;;;;;;;10.16;59.03;102168.66;1858206;76;20870;-71
2021/11/14 10:10:51;;;;;;;42.13;25.35;;;;;;;10.74;57.84;102164.97;1858499;77;21486;-71
2021/11/14 10:13:28;;;;;;;33.40;22.65;;;;;;;11.20;56.86;102171.12;1858266;77;20916;-72
2021/11/14 10:16:20;;;;;;;34.98;22.60;;;;;;;11.74;55.37;102159.88;1858328;77;21323;-69
2021/11/14 10:18:57;;;;;;;33.23;21.30;;;;;;;12.25;53.44;102157.36;1857759;77;21764;-71
2021/11/14 10:21:25;;;;;;;31.55;21.35;;;;;;;12.62;52.25;102161.86;1858119;76;20935;-72
2021/11/14 10:23:54;;;;;;;31.95;21.30;;;;;;;12.83;51.47;102157.45;1861037;77;21457;-71
2021/11/14 10:26:21;;;;;;;35.92;21.15;;;;;;;12.99;50.77;102157.60;1862011;77;20972;-69
2021/11/14 10:28:48;;;;;;;27.02;19.62;;;;;;;13.11;50.21;102160.59;1835592;77;21131;-72
2021/11/14 10:31:23;;;;;;;26.77;17.45;;;;;;;13.22;49.55;102153.91;1861662;77;20901;-71
2021/11/14 10:33:52;;;;;;;23.15;15.83;;;;;;;13.28;49.14;102155.44;1836221;77;20952;-70
2021/11/14 10:36:20;;;;;;;28.57;15.00;;;;;;;13.46;48.52;102151.93;1861532;77;20932;-71
2021/11/14 10:38:47;;;;;;;21.30;14.20;;;;;;;13.68;47.06;102143.84;1861594;77;21043;-73
2021/11/14 10:41:16;;;;;;;19.27;13.35;;;;;;;13.92;45.83;102141.39;1861644;77;21335;-73
2021/11/14 10:43:44;;;;;;;20.00;13.00;;;;;;;14.09;45.70;102137.01;1861848;77;20935;-71
2021/11/14 10:46:19;;;;;;;24.25;13.00;;;;;;;14.37;44.68;102140.02;1861536;77;20995;-72
2021/11/14 10:48:46;;;;;;;19.67;12.10;;;;;;;14.55;42.87;102127.20;1862006;77;21363;-71
2021/11/14 10:51:13;;;;;;;17.42;11.00;;;;;;;14.55;42.87;102127.20;1861521;77;20998;-73
2021/11/14 10:53:45;;;;;;;17.95;13.28;;;;;;;14.47;43.08;102130.23;1861413;77;21965;-72
2021/11/14 10:56:12;;;;;;;20.52;12.85;;;;;;;14.39;42.93;102123.16;1861443;77;20925;-72
2021/11/14 10:58:41;;;;;;;17.60;13.18;;;;;;;14.26;42.85;102121.61;1861866;77;20877;-70
2021/11/14 11:01:12;;;;;;;20.97;13.20;;;;;;;14.08;43.61;102122.56;1861373;77;20873;-71
2021/11/14 11:03:45;;;;;;;22.58;14.20;;;;;;;13.96;43.56;102121.84;1861740;77;20904;-72
2021/11/14 11:06:26;;;;;;;18.02;12.30;;;;;;;13.76;43.99;102122.84;1861561;77;27178;-71
2021/11/14 11:09:01;;;;;;;21.23;13.22;;;;;;;13.66;44.25;102123.77;1861663;77;20881;-71
2021/11/14 11:11:29;;;;;;;19.55;13.13;;;;;;;13.48;44.19;102120.24;1861516;77;21374;-70
2021/11/14 11:13:56;;;;;;;20.20;12.00;;;;;;;13.23;44.37;102117.90;1861362;77;20889;-70
2021/11/14 11:16:27;;;;;;;17.67;12.03;;;;;;;12.97;44.68;102113.84;1861514;77;20925;-71
2021/11/14 11:19:07;;;;;;;18.95;11.75;;;;;;;12.66;44.99;102109.96;1861762;77;21962;-72